sensor_id;sensor_type;location;lat;lon;timestamp;P1;durP1;ratioP1;P2;durP2;ratioP2
14276;SDS011;7222;57.346;12.150;2023-08-31T00:01:35;2.00;;;1.53;;
14276;SDS011;7222;57.346;12.150;2023-08-31T00:04:03;1.77;;;1.67;;
14276;SDS011;7222;57.346;12.150;2023-08-31T00:06:33;1.90;;;1.80;;
14276;SDS011;7222;57.346;12.150;2023-08-31T00:08:59;2.10;;;2.00;;
14276;SDS011;7222;57.346;12.150;2023-08-31T00:11:27;2.03;;;1.83;;
14276;SDS011;7222;57.346;12.150;2023-08-31T00:13:55;2.37;;;1.80;;
14276;SDS011;7222;57.346;12.150;2023-08-31T00:16:24;1.90;;;1.80;;
14276;SDS011;7222;57.346;12.150;2023-08-31T00:18:51;1.80;;;1.70;;
14276;SDS011;7222;57.346;12.150;2023-08-31T00:21:21;1.83;;;1.57;;
14276;SDS011;7222;57.346;12.150;2023-08-31T00:23:49;4.40;;;2.10;;
14276;SDS011;7222;57.346;12.150;2023-08-31T00:26:16;2.87;;;2.67;;
14276;SDS011;7222;57.346;12.150;2023-08-31T00:28:43;2.20;;;2.00;;
14276;SDS011;7222;57.346;12.150;2023-08-31T00:31:11;2.37;;;2.13;;
14276;SDS011;7222;57.346;12.150;2023-08-31T00:33:38;2.20;;;1.67;;
14276;SDS011;7222;57.346;12.150;2023-08-31T00:36:05;2.17;;;1.97;;
14276;SDS011;7222;57.346;12.150;2023-08-31T00:38:32;2.50;;;2.00;;
14276;SDS011;7222;57.346;12.150;2023-08-31T00:40:59;3.07;;;2.27;;
14276;SDS011;7222;57.346;12.150;2023-08-31T00:43:27;2.27;;;1.93;;
14276;SDS011;7222;57.346;12.150;2023-08-31T00:45:54;2.10;;;1.90;;
14276;SDS011;7222;57.346;12.150;2023-08-31T00:48:24;2.73;;;2.00;;
14276;SDS011;7222;57.346;12.150;2023-08-31T00:50:51;2.17;;;1.97;;
14276;SDS011;7222;57.346;12.150;2023-08-31T00:53:18;1.83;;;1.73;;
14276;SDS011;7222;57.346;12.150;2023-08-31T00:55:45;3.20;;;1.97;;
14276;SDS011;7222;57.346;12.150;2023-08-31T00:58:13;2.87;;;1.80;;
14276;SDS011;7222;57.346;12.150;2023-08-31T01:00:40;3.47;;;1.87;;
14276;SDS011;7222;57.346;12.150;2023-08-31T01:03:16;2.77;;;2.53;;
14276;SDS011;7222;57.346;12.150;2023-08-31T01:05:52;2.03;;;1.87;;
14276;SDS011;7222;57.346;12.150;2023-08-31T01:08:24;1.73;;;1.53;;
14276;SDS011;7222;57.346;12.150;2023-08-31T01:11:05;2.00;;;1.90;;
14276;SDS011;7222;57.346;12.150;2023-08-31T01:13:41;2.90;;;2.70;;
14276;SDS011;7222;57.346;12.150;2023-08-31T01:16:15;3.13;;;2.00;;
14276;SDS011;7222;57.346;12.150;2023-08-31T01:18:43;2.13;;;1.93;;
14276;SDS011;7222;57.346;12.150;2023-08-31T01:21:17;1.90;;;1.80;;
14276;SDS011;7222;57.346;12.150;2023-08-31T01:23:53;2.00;;;1.90;;
14276;SDS011;7222;57.346;12.150;2023-08-31T01:26:20;2.87;;;2.07;;
14276;SDS011;7222;57.346;12.150;2023-08-31T01:28:48;2.27;;;2.07;;
14276;SDS011;7222;57.346;12.150;2023-08-31T01:31:16;2.30;;;2.10;;
14276;SDS011;7222;57.346;12.150;2023-08-31T01:33:43;2.47;;;2.03;;
14276;SDS011;7222;57.346;12.150;2023-08-31T01:36:12;2.60;;;2.23;;
14276;SDS011;7222;57.346;12.150;2023-08-31T01:38:48;2.37;;;2.17;;
14276;SDS011;7222;57.346;12.150;2023-08-31T01:41:23;2.07;;;1.87;;
14276;SDS011;7222;57.346;12.150;2023-08-31T01:43:52;2.53;;;2.33;;
14276;SDS011;7222;57.346;12.150;2023-08-31T01:46:19;4.23;;;1.90;;
14276;SDS011;7222;57.346;12.150;2023-08-31T01:48:46;2.63;;;2.10;;
14276;SDS011;7222;57.346;12.150;2023-08-31T01:51:13;2.90;;;2.13;;
14276;SDS011;7222;57.346;12.150;2023-08-31T01:53:42;2.00;;;1.90;;
14276;SDS011;7222;57.346;12.150;2023-08-31T01:56:09;3.10;;;2.13;;
14276;SDS011;7222;57.346;12.150;2023-08-31T01:58:38;2.10;;;1.90;;
14276;SDS011;7222;57.346;12.150;2023-08-31T02:01:05;2.30;;;2.10;;
14276;SDS011;7222;57.346;12.150;2023-08-31T02:03:32;2.27;;;1.83;;
14276;SDS011;7222;57.346;12.150;2023-08-31T02:05:58;2.20;;;2.00;;
14276;SDS011;7222;57.346;12.150;2023-08-31T02:08:25;2.60;;;2.20;;
14276;SDS011;7222;57.346;12.150;2023-08-31T02:10:52;2.73;;;2.10;;
14276;SDS011;7222;57.346;12.150;2023-08-31T02:13:20;2.50;;;2.00;;
14276;SDS011;7222;57.346;12.150;2023-08-31T02:15:50;2.73;;;2.33;;
14276;SDS011;7222;57.346;12.150;2023-08-31T02:18:17;2.47;;;2.00;;
14276;SDS011;7222;57.346;12.150;2023-08-31T02:20:44;2.47;;;1.77;;
14276;SDS011;7222;57.346;12.150;2023-08-31T02:23:11;1.97;;;1.80;;
14276;SDS011;7222;57.346;12.150;2023-08-31T02:25:38;2.87;;;2.17;;
14276;SDS011;7222;57.346;12.150;2023-08-31T02:28:05;2.30;;;2.10;;
14276;SDS011;7222;57.346;12.150;2023-08-31T02:30:32;2.80;;;1.93;;
14276;SDS011;7222;57.346;12.150;2023-08-31T02:33:01;2.03;;;1.87;;
14276;SDS011;7222;57.346;12.150;2023-08-31T02:35:28;3.00;;;2.67;;
14276;SDS011;7222;57.346;12.150;2023-08-31T02:37:55;1.87;;;1.77;;
14276;SDS011;7222;57.346;12.150;2023-08-31T02:40:22;3.53;;;2.37;;
14276;SDS011;7222;57.346;12.150;2023-08-31T02:42:50;5.27;;;2.33;;
14276;SDS011;7222;57.346;12.150;2023-08-31T02:45:17;1.97;;;1.87;;
14276;SDS011;7222;57.346;12.150;2023-08-31T02:47:44;2.60;;;1.87;;
14276;SDS011;7222;57.346;12.150;2023-08-31T02:50:12;2.23;;;2.03;;
14276;SDS011;7222;57.346;12.150;2023-08-31T02:52:39;2.30;;;2.10;;
14276;SDS011;7222;57.346;12.150;2023-08-31T02:55:07;1.90;;;1.80;;
14276;SDS011;7222;57.346;12.150;2023-08-31T02:57:35;2.17;;;1.97;;
14276;SDS011;7222;57.346;12.150;2023-08-31T03:00:02;2.37;;;1.97;;
14276;SDS011;7222;57.346;12.150;2023-08-31T03:02:34;3.37;;;2.37;;
14276;SDS011;7222;57.346;12.150;2023-08-31T03:05:00;2.27;;;1.90;;
14276;SDS011;7222;57.346;12.150;2023-08-31T03:07:29;2.10;;;1.90;;
14276;SDS011;7222;57.346;12.150;2023-08-31T03:09:56;2.93;;;2.00;;
14276;SDS011;7222;57.346;12.150;2023-08-31T03:12:23;2.47;;;2.10;;
14276;SDS011;7222;57.346;12.150;2023-08-31T03:14:50;1.97;;;1.87;;
14276;SDS011;7222;57.346;12.150;2023-08-31T03:17:17;2.33;;;2.00;;
14276;SDS011;7222;57.346;12.150;2023-08-31T03:19:44;2.70;;;2.40;;
14276;SDS011;7222;57.346;12.150;2023-08-31T03:22:11;2.57;;;2.20;;
14276;SDS011;7222;57.346;12.150;2023-08-31T03:24:39;2.00;;;1.80;;
14276;SDS011;7222;57.346;12.150;2023-08-31T03:27:06;2.40;;;2.20;;
14276;SDS011;7222;57.346;12.150;2023-08-31T03:29:33;2.20;;;2.00;;
14276;SDS011;7222;57.346;12.150;2023-08-31T03:32:00;2.50;;;2.07;;
14276;SDS011;7222;57.346;12.150;2023-08-31T03:34:28;2.43;;;2.17;;
14276;SDS011;7222;57.346;12.150;2023-08-31T03:36:55;2.30;;;2.10;;
14276;SDS011;7222;57.346;12.150;2023-08-31T03:39:23;2.20;;;2.00;;
14276;SDS011;7222;57.346;12.150;2023-08-31T03:41:51;2.50;;;1.80;;
14276;SDS011;7222;57.346;12.150;2023-08-31T03:44:18;1.83;;;1.73;;
14276;SDS011;7222;57.346;12.150;2023-08-31T03:46:46;1.90;;;1.80;;
14276;SDS011;7222;57.346;12.150;2023-08-31T03:49:13;1.93;;;1.80;;
14276;SDS011;7222;57.346;12.150;2023-08-31T03:51:40;1.80;;;1.70;;
14276;SDS011;7222;57.346;12.150;2023-08-31T03:54:08;2.87;;;1.90;;
14276;SDS011;7222;57.346;12.150;2023-08-31T03:56:35;2.10;;;1.90;;
14276;SDS011;7222;57.346;12.150;2023-08-31T03:59:03;2.13;;;1.83;;
14276;SDS011;7222;57.346;12.150;2023-08-31T04:01:31;3.83;;;2.00;;
14276;SDS011;7222;57.346;12.150;2023-08-31T04:03:58;1.67;;;1.57;;
14276;SDS011;7222;57.346;12.150;2023-08-31T04:06:25;2.43;;;2.23;;
14276;SDS011;7222;57.346;12.150;2023-08-31T04:08:55;2.17;;;2.00;;
14276;SDS011;7222;57.346;12.150;2023-08-31T04:11:22;1.80;;;1.70;;
14276;SDS011;7222;57.346;12.150;2023-08-31T04:13:49;1.67;;;1.57;;
14276;SDS011;7222;57.346;12.150;2023-08-31T04:16:17;2.43;;;1.87;;
14276;SDS011;7222;57.346;12.150;2023-08-31T04:18:44;1.83;;;1.73;;
14276;SDS011;7222;57.346;12.150;2023-08-31T04:21:16;2.93;;;1.90;;
14276;SDS011;7222;57.346;12.150;2023-08-31T04:23:43;2.90;;;1.93;;
14276;SDS011;7222;57.346;12.150;2023-08-31T04:26:10;1.70;;;1.60;;
14276;SDS011;7222;57.346;12.150;2023-08-31T04:28:37;1.93;;;1.83;;
14276;SDS011;7222;57.346;12.150;2023-08-31T04:31:05;2.93;;;1.73;;
14276;SDS011;7222;57.346;12.150;2023-08-31T04:33:34;2.13;;;1.90;;
14276;SDS011;7222;57.346;12.150;2023-08-31T04:36:01;2.10;;;1.90;;
14276;SDS011;7222;57.346;12.150;2023-08-31T04:38:29;1.83;;;1.70;;
14276;SDS011;7222;57.346;12.150;2023-08-31T04:40:57;1.80;;;1.70;;
14276;SDS011;7222;57.346;12.150;2023-08-31T04:43:24;1.77;;;1.67;;
14276;SDS011;7222;57.346;12.150;2023-08-31T04:45:51;2.03;;;1.70;;
14276;SDS011;7222;57.346;12.150;2023-08-31T04:48:18;2.10;;;1.90;;
14276;SDS011;7222;57.346;12.150;2023-08-31T04:50:47;1.70;;;1.60;;
14276;SDS011;7222;57.346;12.150;2023-08-31T04:53:13;2.03;;;1.80;;
14276;SDS011;7222;57.346;12.150;2023-08-31T04:55:40;1.73;;;1.63;;
14276;SDS011;7222;57.346;12.150;2023-08-31T04:58:08;2.20;;;2.00;;
14276;SDS011;7222;57.346;12.150;2023-08-31T05:00:34;2.10;;;2.00;;
14276;SDS011;7222;57.346;12.150;2023-08-31T05:03:04;4.57;;;1.80;;
14276;SDS011;7222;57.346;12.150;2023-08-31T05:05:31;2.20;;;2.00;;
14276;SDS011;7222;57.346;12.150;2023-08-31T05:07:59;3.13;;;1.70;;
14276;SDS011;7222;57.346;12.150;2023-08-31T05:10:28;2.83;;;1.90;;
14276;SDS011;7222;57.346;12.150;2023-08-31T05:12:54;1.80;;;1.60;;
14276;SDS011;7222;57.346;12.150;2023-08-31T05:15:22;3.07;;;2.10;;
14276;SDS011;7222;57.346;12.150;2023-08-31T05:17:52;2.00;;;1.83;;
14276;SDS011;7222;57.346;12.150;2023-08-31T05:20:19;2.87;;;1.70;;
14276;SDS011;7222;57.346;12.150;2023-08-31T05:22:47;2.13;;;1.90;;
14276;SDS011;7222;57.346;12.150;2023-08-31T05:25:16;2.53;;;1.90;;
14276;SDS011;7222;57.346;12.150;2023-08-31T05:27:42;2.20;;;1.93;;
14276;SDS011;7222;57.346;12.150;2023-08-31T05:30:09;4.63;;;1.93;;
14276;SDS011;7222;57.346;12.150;2023-08-31T05:32:37;2.73;;;1.67;;
14276;SDS011;7222;57.346;12.150;2023-08-31T05:35:04;2.13;;;1.77;;
14276;SDS011;7222;57.346;12.150;2023-08-31T05:37:33;1.80;;;1.70;;
14276;SDS011;7222;57.346;12.150;2023-08-31T05:40:00;2.37;;;1.93;;
14276;SDS011;7222;57.346;12.150;2023-08-31T05:42:32;2.10;;;1.70;;
14276;SDS011;7222;57.346;12.150;2023-08-31T05:44:59;2.70;;;2.00;;
14276;SDS011;7222;57.346;12.150;2023-08-31T05:47:26;1.93;;;1.77;;
14276;SDS011;7222;57.346;12.150;2023-08-31T05:49:53;2.63;;;1.80;;
14276;SDS011;7222;57.346;12.150;2023-08-31T05:52:21;2.30;;;1.90;;
14276;SDS011;7222;57.346;12.150;2023-08-31T05:54:48;1.97;;;1.87;;
14276;SDS011;7222;57.346;12.150;2023-08-31T05:57:18;2.53;;;2.00;;
14276;SDS011;7222;57.346;12.150;2023-08-31T05:59:47;3.20;;;1.80;;
14276;SDS011;7222;57.346;12.150;2023-08-31T06:02:14;2.03;;;1.83;;
14276;SDS011;7222;57.346;12.150;2023-08-31T06:04:42;4.53;;;2.30;;
14276;SDS011;7222;57.346;12.150;2023-08-31T06:07:09;3.20;;;1.90;;
14276;SDS011;7222;57.346;12.150;2023-08-31T06:09:36;2.20;;;2.00;;
14276;SDS011;7222;57.346;12.150;2023-08-31T06:12:03;1.87;;;1.73;;
14276;SDS011;7222;57.346;12.150;2023-08-31T06:14:31;1.90;;;1.80;;
14276;SDS011;7222;57.346;12.150;2023-08-31T06:17:00;2.57;;;2.10;;
14276;SDS011;7222;57.346;12.150;2023-08-31T06:19:27;1.80;;;1.70;;
14276;SDS011;7222;57.346;12.150;2023-08-31T06:21:55;1.63;;;1.53;;
14276;SDS011;7222;57.346;12.150;2023-08-31T06:24:22;2.10;;;1.90;;
14276;SDS011;7222;57.346;12.150;2023-08-31T06:26:49;1.73;;;1.60;;
14276;SDS011;7222;57.346;12.150;2023-08-31T06:29:17;2.87;;;1.87;;
14276;SDS011;7222;57.346;12.150;2023-08-31T06:31:43;2.10;;;2.00;;
14276;SDS011;7222;57.346;12.150;2023-08-31T06:34:12;1.93;;;1.63;;
14276;SDS011;7222;57.346;12.150;2023-08-31T06:36:39;1.97;;;1.83;;
14276;SDS011;7222;57.346;12.150;2023-08-31T06:39:05;2.00;;;1.90;;
14276;SDS011;7222;57.346;12.150;2023-08-31T06:41:32;3.07;;;1.90;;
14276;SDS011;7222;57.346;12.150;2023-08-31T06:43:59;1.90;;;1.80;;
14276;SDS011;7222;57.346;12.150;2023-08-31T06:46:27;3.40;;;1.83;;
14276;SDS011;7222;57.346;12.150;2023-08-31T06:48:55;1.50;;;1.40;;
14276;SDS011;7222;57.346;12.150;2023-08-31T06:51:23;1.83;;;1.73;;
14276;SDS011;7222;57.346;12.150;2023-08-31T06:53:50;1.80;;;1.70;;
14276;SDS011;7222;57.346;12.150;2023-08-31T06:56:17;1.70;;;1.60;;
14276;SDS011;7222;57.346;12.150;2023-08-31T06:58:44;2.00;;;1.90;;
14276;SDS011;7222;57.346;12.150;2023-08-31T07:01:12;2.60;;;1.63;;
14276;SDS011;7222;57.346;12.150;2023-08-31T07:03:39;1.70;;;1.60;;
14276;SDS011;7222;57.346;12.150;2023-08-31T07:06:06;1.83;;;1.73;;
14276;SDS011;7222;57.346;12.150;2023-08-31T07:08:35;1.97;;;1.60;;
14276;SDS011;7222;57.346;12.150;2023-08-31T07:11:05;1.50;;;1.40;;
14276;SDS011;7222;57.346;12.150;2023-08-31T07:13:32;1.63;;;1.50;;
14276;SDS011;7222;57.346;12.150;2023-08-31T07:15:59;3.10;;;1.70;;
14276;SDS011;7222;57.346;12.150;2023-08-31T07:18:27;2.13;;;1.63;;
14276;SDS011;7222;57.346;12.150;2023-08-31T07:20:53;1.70;;;1.50;;
14276;SDS011;7222;57.346;12.150;2023-08-31T07:23:20;2.47;;;1.70;;
14276;SDS011;7222;57.346;12.150;2023-08-31T07:25:49;3.53;;;1.60;;
14276;SDS011;7222;57.346;12.150;2023-08-31T07:28:17;1.90;;;1.23;;
14276;SDS011;7222;57.346;12.150;2023-08-31T07:30:44;1.50;;;1.40;;
14276;SDS011;7222;57.346;12.150;2023-08-31T07:33:11;1.40;;;1.30;;
14276;SDS011;7222;57.346;12.150;2023-08-31T07:35:38;1.60;;;1.50;;
14276;SDS011;7222;57.346;12.150;2023-08-31T07:38:05;1.50;;;1.40;;
14276;SDS011;7222;57.346;12.150;2023-08-31T07:40:32;1.53;;;1.43;;
14276;SDS011;7222;57.346;12.150;2023-08-31T07:43:01;1.40;;;1.30;;
14276;SDS011;7222;57.346;12.150;2023-08-31T07:45:28;1.60;;;1.50;;
14276;SDS011;7222;57.346;12.150;2023-08-31T07:47:56;1.37;;;1.27;;
14276;SDS011;7222;57.346;12.150;2023-08-31T07:50:23;1.53;;;1.30;;
14276;SDS011;7222;57.346;12.150;2023-08-31T07:52:50;1.43;;;1.30;;
14276;SDS011;7222;57.346;12.150;2023-08-31T07:55:17;1.40;;;1.30;;
14276;SDS011;7222;57.346;12.150;2023-08-31T07:57:44;1.20;;;1.10;;
14276;SDS011;7222;57.346;12.150;2023-08-31T08:00:13;1.20;;;1.10;;
14276;SDS011;7222;57.346;12.150;2023-08-31T08:02:40;1.13;;;1.10;;
14276;SDS011;7222;57.346;12.150;2023-08-31T08:05:07;1.30;;;1.20;;
14276;SDS011;7222;57.346;12.150;2023-08-31T08:07:35;1.60;;;1.33;;
14276;SDS011;7222;57.346;12.150;2023-08-31T08:10:02;1.20;;;1.20;;
14276;SDS011;7222;57.346;12.150;2023-08-31T08:12:36;1.40;;;1.23;;
14276;SDS011;7222;57.346;12.150;2023-08-31T08:15:04;1.37;;;1.27;;
14276;SDS011;7222;57.346;12.150;2023-08-31T08:17:34;1.10;;;1.10;;
14276;SDS011;7222;57.346;12.150;2023-08-31T08:20:02;1.20;;;1.10;;
14276;SDS011;7222;57.346;12.150;2023-08-31T08:22:30;1.23;;;1.10;;
14276;SDS011;7222;57.346;12.150;2023-08-31T08:24:57;1.20;;;1.10;;
14276;SDS011;7222;57.346;12.150;2023-08-31T08:27:24;0.97;;;0.97;;
14276;SDS011;7222;57.346;12.150;2023-08-31T08:29:51;1.00;;;1.00;;
14276;SDS011;7222;57.346;12.150;2023-08-31T08:32:18;1.20;;;1.10;;
14276;SDS011;7222;57.346;12.150;2023-08-31T08:34:47;1.00;;;0.97;;
14276;SDS011;7222;57.346;12.150;2023-08-31T08:37:14;2.20;;;1.00;;
14276;SDS011;7222;57.346;12.150;2023-08-31T08:39:40;1.10;;;1.10;;
14276;SDS011;7222;57.346;12.150;2023-08-31T08:42:07;1.23;;;0.90;;
14276;SDS011;7222;57.346;12.150;2023-08-31T08:44:36;1.43;;;1.00;;
14276;SDS011;7222;57.346;12.150;2023-08-31T08:47:04;2.00;;;1.10;;
14276;SDS011;7222;57.346;12.150;2023-08-31T08:49:32;1.00;;;1.00;;
14276;SDS011;7222;57.346;12.150;2023-08-31T08:52:03;1.20;;;1.10;;
14276;SDS011;7222;57.346;12.150;2023-08-31T08:54:31;0.87;;;0.87;;
14276;SDS011;7222;57.346;12.150;2023-08-31T08:56:58;1.93;;;1.00;;
14276;SDS011;7222;57.346;12.150;2023-08-31T08:59:26;1.23;;;0.90;;
14276;SDS011;7222;57.346;12.150;2023-08-31T09:01:53;1.07;;;0.90;;
14276;SDS011;7222;57.346;12.150;2023-08-31T09:04:20;2.20;;;0.83;;
14276;SDS011;7222;57.346;12.150;2023-08-31T09:06:47;0.70;;;0.70;;
14276;SDS011;7222;57.346;12.150;2023-08-31T09:09:17;1.83;;;1.10;;
14276;SDS011;7222;57.346;12.150;2023-08-31T09:11:45;1.20;;;1.20;;
14276;SDS011;7222;57.346;12.150;2023-08-31T09:14:15;1.77;;;1.60;;
14276;SDS011;7222;57.346;12.150;2023-08-31T09:16:44;1.40;;;1.30;;
14276;SDS011;7222;57.346;12.150;2023-08-31T09:19:17;1.20;;;1.10;;
14276;SDS011;7222;57.346;12.150;2023-08-31T09:21:46;1.23;;;1.13;;
14276;SDS011;7222;57.346;12.150;2023-08-31T09:24:13;1.10;;;1.10;;
14276;SDS011;7222;57.346;12.150;2023-08-31T09:26:44;1.17;;;1.10;;
14276;SDS011;7222;57.346;12.150;2023-08-31T09:29:12;1.23;;;1.20;;
14276;SDS011;7222;57.346;12.150;2023-08-31T09:31:41;1.47;;;1.37;;
14276;SDS011;7222;57.346;12.150;2023-08-31T09:34:09;0.80;;;0.80;;
14276;SDS011;7222;57.346;12.150;2023-08-31T09:36:36;1.20;;;1.10;;
14276;SDS011;7222;57.346;12.150;2023-08-31T09:39:03;0.90;;;0.90;;
14276;SDS011;7222;57.346;12.150;2023-08-31T09:41:32;1.17;;;1.03;;
14276;SDS011;7222;57.346;12.150;2023-08-31T09:44:07;1.33;;;1.23;;
14276;SDS011;7222;57.346;12.150;2023-08-31T09:46:42;1.07;;;1.00;;
14276;SDS011;7222;57.346;12.150;2023-08-31T09:49:10;1.30;;;1.00;;
14276;SDS011;7222;57.346;12.150;2023-08-31T09:51:41;1.00;;;1.00;;
14276;SDS011;7222;57.346;12.150;2023-08-31T09:54:11;0.83;;;0.80;;
14276;SDS011;7222;57.346;12.150;2023-08-31T09:56:42;1.03;;;1.03;;
14276;SDS011;7222;57.346;12.150;2023-08-31T09:59:11;0.80;;;0.80;;
14276;SDS011;7222;57.346;12.150;2023-08-31T10:01:39;0.80;;;0.80;;
14276;SDS011;7222;57.346;12.150;2023-08-31T10:04:06;0.97;;;0.80;;
14276;SDS011;7222;57.346;12.150;2023-08-31T10:06:34;0.97;;;0.90;;
14276;SDS011;7222;57.346;12.150;2023-08-31T10:09:01;1.10;;;1.00;;
14276;SDS011;7222;57.346;12.150;2023-08-31T10:11:30;0.70;;;0.70;;
14276;SDS011;7222;57.346;12.150;2023-08-31T10:13:58;1.03;;;0.90;;
14276;SDS011;7222;57.346;12.150;2023-08-31T10:16:26;0.77;;;0.73;;
14276;SDS011;7222;57.346;12.150;2023-08-31T10:18:54;0.87;;;0.87;;
14276;SDS011;7222;57.346;12.150;2023-08-31T10:21:21;0.90;;;0.90;;
14276;SDS011;7222;57.346;12.150;2023-08-31T10:23:49;0.90;;;0.90;;
14276;SDS011;7222;57.346;12.150;2023-08-31T10:26:23;0.70;;;0.70;;
14276;SDS011;7222;57.346;12.150;2023-08-31T10:28:51;1.37;;;1.20;;
14276;SDS011;7222;57.346;12.150;2023-08-31T10:31:18;0.80;;;0.80;;
14276;SDS011;7222;57.346;12.150;2023-08-31T10:33:55;1.27;;;0.90;;
14276;SDS011;7222;57.346;12.150;2023-08-31T10:36:34;1.00;;;1.00;;
14276;SDS011;7222;57.346;12.150;2023-08-31T10:39:05;0.90;;;0.90;;
14276;SDS011;7222;57.346;12.150;2023-08-31T10:41:37;1.00;;;1.00;;
14276;SDS011;7222;57.346;12.150;2023-08-31T10:44:17;0.70;;;0.70;;
14276;SDS011;7222;57.346;12.150;2023-08-31T10:46:45;0.90;;;0.90;;
14276;SDS011;7222;57.346;12.150;2023-08-31T10:49:14;0.70;;;0.70;;
14276;SDS011;7222;57.346;12.150;2023-08-31T10:51:42;1.03;;;0.93;;
14276;SDS011;7222;57.346;12.150;2023-08-31T10:54:10;1.67;;;1.00;;
14276;SDS011;7222;57.346;12.150;2023-08-31T10:59:21;1.57;;;1.03;;
14276;SDS011;7222;57.346;12.150;2023-08-31T11:01:54;0.90;;;0.90;;
14276;SDS011;7222;57.346;12.150;2023-08-31T11:04:23;0.77;;;0.77;;
14276;SDS011;7222;57.346;12.150;2023-08-31T11:07:11;3.73;;;1.10;;
14276;SDS011;7222;57.346;12.150;2023-08-31T11:09:41;1.33;;;1.23;;
14276;SDS011;7222;57.346;12.150;2023-08-31T11:12:08;1.23;;;0.77;;
14276;SDS011;7222;57.346;12.150;2023-08-31T11:14:35;2.03;;;1.03;;
14276;SDS011;7222;57.346;12.150;2023-08-31T11:17:03;1.03;;;1.00;;
14276;SDS011;7222;57.346;12.150;2023-08-31T11:19:32;0.87;;;0.87;;
14276;SDS011;7222;57.346;12.150;2023-08-31T11:22:00;1.00;;;0.90;;
14276;SDS011;7222;57.346;12.150;2023-08-31T11:24:28;0.90;;;0.90;;
14276;SDS011;7222;57.346;12.150;2023-08-31T11:26:55;1.53;;;1.30;;
14276;SDS011;7222;57.346;12.150;2023-08-31T11:29:22;1.30;;;1.00;;
14276;SDS011;7222;57.346;12.150;2023-08-31T11:31:49;1.17;;;0.80;;
14276;SDS011;7222;57.346;12.150;2023-08-31T11:34:17;1.07;;;1.00;;
14276;SDS011;7222;57.346;12.150;2023-08-31T11:36:46;1.33;;;1.10;;
14276;SDS011;7222;57.346;12.150;2023-08-31T11:39:13;1.40;;;1.30;;
14276;SDS011;7222;57.346;12.150;2023-08-31T11:41:40;1.20;;;1.20;;
14276;SDS011;7222;57.346;12.150;2023-08-31T11:44:09;1.47;;;1.30;;
14276;SDS011;7222;57.346;12.150;2023-08-31T11:46:36;1.07;;;0.93;;
14276;SDS011;7222;57.346;12.150;2023-08-31T11:49:04;1.20;;;1.10;;
14276;SDS011;7222;57.346;12.150;2023-08-31T11:51:32;1.87;;;1.20;;
14276;SDS011;7222;57.346;12.150;2023-08-31T11:54:01;1.40;;;1.20;;
14276;SDS011;7222;57.346;12.150;2023-08-31T11:56:38;1.30;;;1.20;;
14276;SDS011;7222;57.346;12.150;2023-08-31T11:59:07;1.43;;;1.20;;
14276;SDS011;7222;57.346;12.150;2023-08-31T12:01:37;1.40;;;1.23;;
14276;SDS011;7222;57.346;12.150;2023-08-31T12:04:09;1.00;;;1.00;;
14276;SDS011;7222;57.346;12.150;2023-08-31T12:06:37;2.50;;;1.10;;
14276;SDS011;7222;57.346;12.150;2023-08-31T12:09:06;1.27;;;1.17;;
14276;SDS011;7222;57.346;12.150;2023-08-31T12:11:33;1.77;;;1.30;;
14276;SDS011;7222;57.346;12.150;2023-08-31T12:14:01;2.27;;;1.40;;
14276;SDS011;7222;57.346;12.150;2023-08-31T12:16:32;1.83;;;1.20;;
14276;SDS011;7222;57.346;12.150;2023-08-31T12:19:01;1.37;;;1.10;;
14276;SDS011;7222;57.346;12.150;2023-08-31T12:21:30;1.63;;;1.03;;
14276;SDS011;7222;57.346;12.150;2023-08-31T12:23:57;1.40;;;1.30;;
14276;SDS011;7222;57.346;12.150;2023-08-31T12:26:26;1.20;;;1.13;;
14276;SDS011;7222;57.346;12.150;2023-08-31T12:28:53;1.20;;;1.20;;
14276;SDS011;7222;57.346;12.150;2023-08-31T12:31:20;1.40;;;1.17;;
14276;SDS011;7222;57.346;12.150;2023-08-31T12:33:48;1.43;;;1.27;;
14276;SDS011;7222;57.346;12.150;2023-08-31T12:36:15;1.40;;;1.30;;
14276;SDS011;7222;57.346;12.150;2023-08-31T12:38:42;1.33;;;1.10;;
14276;SDS011;7222;57.346;12.150;2023-08-31T12:41:09;1.57;;;1.47;;
14276;SDS011;7222;57.346;12.150;2023-08-31T12:43:37;1.50;;;1.27;;
14276;SDS011;7222;57.346;12.150;2023-08-31T12:46:04;1.70;;;1.33;;
14276;SDS011;7222;57.346;12.150;2023-08-31T12:48:31;1.90;;;1.57;;
14276;SDS011;7222;57.346;12.150;2023-08-31T12:50:58;1.47;;;1.37;;
14276;SDS011;7222;57.346;12.150;2023-08-31T12:53:25;1.63;;;1.53;;
14276;SDS011;7222;57.346;12.150;2023-08-31T12:55:52;1.80;;;1.30;;
14276;SDS011;7222;57.346;12.150;2023-08-31T12:58:19;1.40;;;1.27;;
14276;SDS011;7222;57.346;12.150;2023-08-31T13:00:49;1.70;;;1.30;;
14276;SDS011;7222;57.346;12.150;2023-08-31T13:03:18;0.90;;;0.90;;
14276;SDS011;7222;57.346;12.150;2023-08-31T13:05:46;1.50;;;1.40;;
14276;SDS011;7222;57.346;12.150;2023-08-31T13:08:13;1.50;;;1.40;;
14276;SDS011;7222;57.346;12.150;2023-08-31T13:10:41;1.43;;;1.33;;
14276;SDS011;7222;57.346;12.150;2023-08-31T13:13:08;1.50;;;1.40;;
14276;SDS011;7222;57.346;12.150;2023-08-31T13:15:35;2.33;;;1.30;;
14276;SDS011;7222;57.346;12.150;2023-08-31T13:18:03;1.87;;;1.40;;
14276;SDS011;7222;57.346;12.150;2023-08-31T13:20:30;2.10;;;1.10;;
14276;SDS011;7222;57.346;12.150;2023-08-31T13:22:57;2.07;;;1.87;;
14276;SDS011;7222;57.346;12.150;2023-08-31T13:25:24;1.43;;;1.30;;
14276;SDS011;7222;57.346;12.150;2023-08-31T13:27:51;1.43;;;1.27;;
14276;SDS011;7222;57.346;12.150;2023-08-31T13:30:18;1.83;;;1.40;;
14276;SDS011;7222;57.346;12.150;2023-08-31T13:32:45;1.53;;;1.43;;
14276;SDS011;7222;57.346;12.150;2023-08-31T13:35:13;1.40;;;1.30;;
14276;SDS011;7222;57.346;12.150;2023-08-31T13:37:40;1.63;;;1.40;;
14276;SDS011;7222;57.346;12.150;2023-08-31T13:40:07;1.53;;;1.40;;
14276;SDS011;7222;57.346;12.150;2023-08-31T13:42:35;1.80;;;1.70;;
14276;SDS011;7222;57.346;12.150;2023-08-31T13:45:05;1.53;;;1.43;;
14276;SDS011;7222;57.346;12.150;2023-08-31T13:47:33;1.57;;;1.47;;
14276;SDS011;7222;57.346;12.150;2023-08-31T13:49:59;1.60;;;1.50;;
14276;SDS011;7222;57.346;12.150;2023-08-31T13:52:28;2.80;;;1.40;;
14276;SDS011;7222;57.346;12.150;2023-08-31T13:54:55;1.30;;;1.30;;
14276;SDS011;7222;57.346;12.150;2023-08-31T13:57:22;1.50;;;1.40;;
14276;SDS011;7222;57.346;12.150;2023-08-31T13:59:49;1.33;;;1.23;;
14276;SDS011;7222;57.346;12.150;2023-08-31T14:02:17;1.67;;;1.57;;
14276;SDS011;7222;57.346;12.150;2023-08-31T14:04:44;2.03;;;1.73;;
14276;SDS011;7222;57.346;12.150;2023-08-31T14:07:11;5.63;;;2.23;;
14276;SDS011;7222;57.346;12.150;2023-08-31T14:09:40;1.60;;;1.50;;
14276;SDS011;7222;57.346;12.150;2023-08-31T14:12:07;1.27;;;1.20;;
14276;SDS011;7222;57.346;12.150;2023-08-31T14:14:34;2.87;;;1.30;;
14276;SDS011;7222;57.346;12.150;2023-08-31T14:17:02;1.50;;;1.20;;
14276;SDS011;7222;57.346;12.150;2023-08-31T14:19:29;1.30;;;1.20;;
14276;SDS011;7222;57.346;12.150;2023-08-31T14:21:57;1.43;;;1.33;;
14276;SDS011;7222;57.346;12.150;2023-08-31T14:24:23;1.17;;;1.07;;
14276;SDS011;7222;57.346;12.150;2023-08-31T14:26:52;1.67;;;1.50;;
14276;SDS011;7222;57.346;12.150;2023-08-31T14:29:19;1.67;;;1.30;;
14276;SDS011;7222;57.346;12.150;2023-08-31T14:31:46;1.33;;;1.20;;
14276;SDS011;7222;57.346;12.150;2023-08-31T14:34:13;1.73;;;1.63;;
14276;SDS011;7222;57.346;12.150;2023-08-31T14:36:40;2.80;;;2.17;;
14276;SDS011;7222;57.346;12.150;2023-08-31T14:39:07;6.23;;;4.10;;
14276;SDS011;7222;57.346;12.150;2023-08-31T14:41:34;5.13;;;3.50;;
14276;SDS011;7222;57.346;12.150;2023-08-31T14:44:02;1.33;;;1.23;;
14276;SDS011;7222;57.346;12.150;2023-08-31T14:46:29;2.53;;;2.00;;
14276;SDS011;7222;57.346;12.150;2023-08-31T14:48:56;1.77;;;1.67;;
14276;SDS011;7222;57.346;12.150;2023-08-31T14:51:23;5.03;;;2.93;;
14276;SDS011;7222;57.346;12.150;2023-08-31T14:53:49;3.60;;;2.30;;
14276;SDS011;7222;57.346;12.150;2023-08-31T14:56:16;8.43;;;4.13;;